首页
METAR-TAF:

METAR-TAF

机场 :

盐湖城国际机场

盐湖城, 犹他州, 美国

纬度: 40-46-41N, 经度: 111-58-10W, 海拔: 1288米

当前天气观测

该预报发布于14分钟前的22:54 UTC
风速17节,风向北转西北,有时为20节阵风
温度 30°C
湿度 15%
气压 1011 hPa
能見度: 16.1公里
少量云层高于9000英尺

METAR: KSLC 232254Z 34017G20KT 10SM FEW090 30/01 A2985 RMK AO2 SLP052 T03000011

时间: 17:08 (23:08 UTC)

预报

该预报发布于2小时和20分钟前的20:48 UTC
预报有效从23日的 21点(UTC)到 24日的 24点(UTC)
风速14节,风向北转西北,有时为22节阵风
能見度: 10公里
散云层高于12000英尺
从 24日的 0200点(UTC)
风速11节,风向北转西北
能見度: 10公里
散云层高于12000英尺
从 24日的 0600点(UTC)
风速7节,风向
能見度: 10公里
天空无云

TAF: KSLC 232048Z 2321/2424 33014G22KT P6SM SCT120 FM240200 34011KT P6SM SCT120 FM240600 36007KT P6SM SKC

超过4000个机场的气象观测和天气预报(METAR&TAF报告)。

可查询的气象台以黄色和红色小点在地图上表示。

将鼠标移到小点上方,可查看气象台名称。

然后点击查看天气观测和预报。

如需切换地图:点击带黑十字的绿色按钮放大地图;点击带横线的绿色按钮缩小地图;或者点击绿色箭头查看邻近地区的地图。


METAR-TAF: